Terminal Aerodrome Forecast
Issued by NWS

Home | Current Version | Previous Version | Text Only | Print | Product List | Glossary On
Versions: 1 2 3 4 5 6 7 8 9 10 11 12 13 14 15 16 17 18 19 20 21 22 23 24 25 26 27 28 29 30 31 32 33 34 35 36
000
FTUS42 KCAE 200800 AAA
TAFCUB
TAF AMD
KCUB 200831Z 2009/2106 05005KT P6SM SCT060
     FM201000 06005KT P6SM BKN045
     FM201500 06010G15KT P6SM BKN045
     FM202100 06007KT P6SM FEW250
     FM210100 05003KT P6SM FEW250=

USA.gov is the U.S. government's official web portal to all federal, state and local government web resources and services.